sensor_id;sensor_type;location;lat;lon;timestamp;pressure;altitude;pressure_sealevel;temperature;humidity
29815;BME280;16708;50.426;7.664;2023-02-01T00:12:43;991.81;;;3.49;100.00
29815;BME280;16708;50.426;7.664;2023-02-01T00:27:21;991.69;;;3.47;100.00
29815;BME280;16708;50.426;7.664;2023-02-01T00:41:57;991.72;;;3.47;100.00
29815;BME280;16708;50.426;7.664;2023-02-01T00:56:32;991.79;;;3.68;100.00
29815;BME280;16708;50.426;7.664;2023-02-01T01:11:10;991.74;;;3.81;100.00
29815;BME280;16708;50.426;7.664;2023-02-01T01:25:46;991.74;;;3.79;100.00
29815;BME280;16708;50.426;7.664;2023-02-01T01:40:23;991.61;;;3.74;100.00
29815;BME280;16708;50.426;7.664;2023-02-01T01:55:01;991.31;;;3.75;100.00
29815;BME280;16708;50.426;7.664;2023-02-01T02:09:39;991.39;;;3.68;100.00
29815;BME280;16708;50.426;7.664;2023-02-01T02:38:53;991.36;;;3.75;100.00
29815;BME280;16708;50.426;7.664;2023-02-01T02:53:31;991.17;;;3.85;100.00
29815;BME280;16708;50.426;7.664;2023-02-01T03:08:09;991.18;;;3.86;100.00
29815;BME280;16708;50.426;7.664;2023-02-01T03:22:46;990.97;;;3.75;100.00
29815;BME280;16708;50.426;7.664;2023-02-01T03:37:24;991.01;;;3.78;100.00
29815;BME280;16708;50.426;7.664;2023-02-01T03:52:02;990.82;;;3.78;100.00
29815;BME280;16708;50.426;7.664;2023-02-01T04:06:41;990.85;;;3.75;100.00
29815;BME280;16708;50.426;7.664;2023-02-01T04:21:17;990.85;;;3.82;100.00
29815;BME280;16708;50.426;7.664;2023-02-01T04:35:55;990.78;;;3.96;100.00
29815;BME280;16708;50.426;7.664;2023-02-01T04:50:33;990.96;;;3.91;100.00
29815;BME280;16708;50.426;7.664;2023-02-01T05:05:11;991.06;;;3.86;100.00
29815;BME280;16708;50.426;7.664;2023-02-01T05:19:50;991.01;;;3.73;100.00
29815;BME280;16708;50.426;7.664;2023-02-01T05:34:24;990.77;;;3.49;100.00
29815;BME280;16708;50.426;7.664;2023-02-01T05:49:01;990.60;;;3.54;100.00
29815;BME280;16708;50.426;7.664;2023-02-01T06:03:38;990.89;;;3.63;100.00
29815;BME280;16708;50.426;7.664;2023-02-01T06:18:13;990.89;;;3.31;100.00
29815;BME280;16708;50.426;7.664;2023-02-01T06:32:46;990.80;;;3.44;100.00
29815;BME280;16708;50.426;7.664;2023-02-01T06:47:24;990.75;;;3.60;100.00
29815;BME280;16708;50.426;7.664;2023-02-01T07:01:52;990.77;;;3.65;100.00
29815;BME280;16708;50.426;7.664;2023-02-01T07:16:30;991.04;;;3.85;100.00
29815;BME280;16708;50.426;7.664;2023-02-01T07:31:09;991.26;;;3.72;100.00
29815;BME280;16708;50.426;7.664;2023-02-01T07:45:47;991.43;;;3.65;100.00
29815;BME280;16708;50.426;7.664;2023-02-01T08:00:26;991.65;;;3.83;100.00
29815;BME280;16708;50.426;7.664;2023-02-01T08:15:04;991.61;;;3.82;100.00
29815;BME280;16708;50.426;7.664;2023-02-01T08:29:42;991.63;;;3.80;100.00
29815;BME280;16708;50.426;7.664;2023-02-01T08:44:20;991.76;;;3.85;100.00
29815;BME280;16708;50.426;7.664;2023-02-01T08:58:59;991.85;;;3.97;100.00
29815;BME280;16708;50.426;7.664;2023-02-01T09:13:36;992.00;;;4.09;100.00
29815;BME280;16708;50.426;7.664;2023-02-01T09:28:08;992.08;;;4.31;100.00
29815;BME280;16708;50.426;7.664;2023-02-01T09:57:22;991.90;;;4.56;100.00
29815;BME280;16708;50.426;7.664;2023-02-01T10:26:39;991.76;;;4.79;100.00
29815;BME280;16708;50.426;7.664;2023-02-01T10:41:17;991.59;;;4.91;100.00
29815;BME280;16708;50.426;7.664;2023-02-01T10:55:46;991.64;;;5.13;100.00
29815;BME280;16708;50.426;7.664;2023-02-01T11:25:02;991.42;;;5.20;100.00
29815;BME280;16708;50.426;7.664;2023-02-01T11:39:39;991.28;;;5.74;100.00
29815;BME280;16708;50.426;7.664;2023-02-01T12:08:52;991.13;;;5.43;100.00
29815;BME280;16708;50.426;7.664;2023-02-01T12:38:06;990.83;;;5.42;100.00
29815;BME280;16708;50.426;7.664;2023-02-01T12:52:41;990.65;;;5.35;100.00
29815;BME280;16708;50.426;7.664;2023-02-01T13:07:17;990.67;;;5.60;100.00
29815;BME280;16708;50.426;7.664;2023-02-01T13:21:56;990.67;;;6.12;100.00
29815;BME280;16708;50.426;7.664;2023-02-01T13:51:12;990.34;;;5.86;100.00
29815;BME280;16708;50.426;7.664;2023-02-01T14:20:27;990.14;;;5.93;100.00
29815;BME280;16708;50.426;7.664;2023-02-01T14:35:05;990.20;;;5.89;100.00
29815;BME280;16708;50.426;7.664;2023-02-01T15:04:21;990.41;;;5.84;100.00
29815;BME280;16708;50.426;7.664;2023-02-01T15:18:59;990.42;;;5.92;100.00
29815;BME280;16708;50.426;7.664;2023-02-01T15:33:34;990.51;;;6.06;100.00
29815;BME280;16708;50.426;7.664;2023-02-01T15:48:14;990.58;;;6.14;100.00
29815;BME280;16708;50.426;7.664;2023-02-01T16:02:52;990.55;;;6.20;100.00
29815;BME280;16708;50.426;7.664;2023-02-01T16:17:26;990.46;;;6.13;100.00
29815;BME280;16708;50.426;7.664;2023-02-01T16:32:05;990.57;;;6.11;100.00
29815;BME280;16708;50.426;7.664;2023-02-01T16:46:41;990.63;;;5.67;100.00
29815;BME280;16708;50.426;7.664;2023-02-01T17:01:13;990.92;;;5.12;100.00
29815;BME280;16708;50.426;7.664;2023-02-01T17:15:40;991.15;;;4.68;100.00
29815;BME280;16708;50.426;7.664;2023-02-01T17:30:12;991.17;;;4.61;100.00
29815;BME280;16708;50.426;7.664;2023-02-01T17:59:18;991.30;;;4.34;100.00
29815;BME280;16708;50.426;7.664;2023-02-01T18:28:31;991.41;;;4.18;100.00
29815;BME280;16708;50.426;7.664;2023-02-01T18:43:07;991.23;;;4.23;100.00
29815;BME280;16708;50.426;7.664;2023-02-01T18:57:45;991.16;;;4.30;100.00
29815;BME280;16708;50.426;7.664;2023-02-01T19:12:23;991.32;;;4.47;100.00
29815;BME280;16708;50.426;7.664;2023-02-01T19:27:00;991.35;;;4.58;100.00
29815;BME280;16708;50.426;7.664;2023-02-01T19:41:38;991.42;;;4.72;100.00
29815;BME280;16708;50.426;7.664;2023-02-01T19:56:14;991.41;;;4.76;100.00
29815;BME280;16708;50.426;7.664;2023-02-01T20:10:41;991.31;;;4.89;100.00
29815;BME280;16708;50.426;7.664;2023-02-01T20:25:18;991.36;;;4.84;100.00
29815;BME280;16708;50.426;7.664;2023-02-01T20:39:54;991.25;;;4.82;100.00
29815;BME280;16708;50.426;7.664;2023-02-01T20:54:32;991.26;;;4.81;100.00
29815;BME280;16708;50.426;7.664;2023-02-01T21:09:10;991.31;;;4.82;100.00
29815;BME280;16708;50.426;7.664;2023-02-01T21:23:43;991.31;;;5.21;100.00
29815;BME280;16708;50.426;7.664;2023-02-01T21:38:21;991.30;;;4.85;100.00
29815;BME280;16708;50.426;7.664;2023-02-01T21:53:00;991.32;;;4.87;100.00
29815;BME280;16708;50.426;7.664;2023-02-01T22:07:38;991.44;;;4.93;100.00
29815;BME280;16708;50.426;7.664;2023-02-01T22:22:14;991.68;;;4.90;100.00
29815;BME280;16708;50.426;7.664;2023-02-01T22:36:49;991.70;;;4.95;100.00
29815;BME280;16708;50.426;7.664;2023-02-01T22:51:26;991.74;;;5.28;100.00
29815;BME280;16708;50.426;7.664;2023-02-01T23:06:03;991.82;;;5.47;100.00
29815;BME280;16708;50.426;7.664;2023-02-01T23:20:42;991.84;;;5.47;100.00
29815;BME280;16708;50.426;7.664;2023-02-01T23:35:21;991.86;;;6.09;100.00
29815;BME280;16708;50.426;7.664;2023-02-01T23:50:00;991.88;;;6.14;100.00
